sensor_id;sensor_type;location;lat;lon;timestamp;pressure;altitude;pressure_sealevel;temperature;humidity
36748;BME280;22716;51.556;5.080;2023-01-25T00:01:19;103005.28;;;1.49;100.00
36748;BME280;22716;51.556;5.080;2023-01-25T00:03:48;103003.69;;;1.51;100.00
36748;BME280;22716;51.556;5.080;2023-01-25T00:06:18;103004.66;;;1.53;100.00
36748;BME280;22716;51.556;5.080;2023-01-25T00:08:51;103001.44;;;1.42;100.00
36748;BME280;22716;51.556;5.080;2023-01-25T00:11:19;103008.81;;;1.36;100.00
36748;BME280;22716;51.556;5.080;2023-01-25T00:13:48;103007.03;;;1.35;100.00
36748;BME280;22716;51.556;5.080;2023-01-25T00:16:17;103006.94;;;1.34;100.00
36748;BME280;22716;51.556;5.080;2023-01-25T00:18:45;102999.19;;;1.34;100.00
36748;BME280;22716;51.556;5.080;2023-01-25T00:21:17;102991.00;;;1.26;100.00
36748;BME280;22716;51.556;5.080;2023-01-25T00:23:50;102989.94;;;1.37;100.00
36748;BME280;22716;51.556;5.080;2023-01-25T00:26:19;102997.97;;;1.42;100.00
36748;BME280;22716;51.556;5.080;2023-01-25T00:28:48;102982.38;;;1.40;100.00
36748;BME280;22716;51.556;5.080;2023-01-25T00:31:25;102994.47;;;1.41;100.00
36748;BME280;22716;51.556;5.080;2023-01-25T00:34:04;102991.28;;;1.45;100.00
36748;BME280;22716;51.556;5.080;2023-01-25T00:36:40;102996.88;;;1.38;100.00
36748;BME280;22716;51.556;5.080;2023-01-25T00:39:12;102988.25;;;1.38;100.00
36748;BME280;22716;51.556;5.080;2023-01-25T00:41:41;102988.63;;;1.44;100.00
36748;BME280;22716;51.556;5.080;2023-01-25T00:44:10;102993.50;;;1.39;100.00
36748;BME280;22716;51.556;5.080;2023-01-25T00:46:39;102990.13;;;1.40;100.00
36748;BME280;22716;51.556;5.080;2023-01-25T00:49:18;102989.06;;;1.37;100.00
36748;BME280;22716;51.556;5.080;2023-01-25T00:51:47;102994.41;;;1.40;100.00
36748;BME280;22716;51.556;5.080;2023-01-25T00:54:19;102987.56;;;1.40;100.00
36748;BME280;22716;51.556;5.080;2023-01-25T00:56:48;102975.53;;;1.41;100.00
36748;BME280;22716;51.556;5.080;2023-01-25T00:59:18;102977.94;;;1.38;100.00
36748;BME280;22716;51.556;5.080;2023-01-25T01:01:47;102982.56;;;1.43;100.00
36748;BME280;22716;51.556;5.080;2023-01-25T01:04:16;102981.75;;;1.44;100.00
36748;BME280;22716;51.556;5.080;2023-01-25T01:06:45;102979.81;;;1.40;100.00
36748;BME280;22716;51.556;5.080;2023-01-25T01:09:18;102975.34;;;1.38;100.00
36748;BME280;22716;51.556;5.080;2023-01-25T01:11:47;102978.41;;;1.32;100.00
36748;BME280;22716;51.556;5.080;2023-01-25T01:14:15;102976.56;;;1.30;100.00
36748;BME280;22716;51.556;5.080;2023-01-25T01:16:45;102975.69;;;1.29;100.00
36748;BME280;22716;51.556;5.080;2023-01-25T01:19:14;102967.56;;;1.23;100.00
36748;BME280;22716;51.556;5.080;2023-01-25T01:21:43;102966.75;;;1.24;100.00
36748;BME280;22716;51.556;5.080;2023-01-25T01:24:12;102964.41;;;1.14;100.00
36748;BME280;22716;51.556;5.080;2023-01-25T01:26:45;102964.31;;;1.12;100.00
36748;BME280;22716;51.556;5.080;2023-01-25T01:29:13;102975.91;;;1.19;100.00
36748;BME280;22716;51.556;5.080;2023-01-25T01:31:42;102964.50;;;1.16;100.00
36748;BME280;22716;51.556;5.080;2023-01-25T01:34:12;102970.16;;;1.23;100.00
36748;BME280;22716;51.556;5.080;2023-01-25T01:36:42;102970.75;;;1.19;100.00
36748;BME280;22716;51.556;5.080;2023-01-25T01:39:10;102971.19;;;1.27;100.00
36748;BME280;22716;51.556;5.080;2023-01-25T01:41:39;102973.09;;;1.29;100.00
36748;BME280;22716;51.556;5.080;2023-01-25T01:44:15;102971.50;;;1.31;100.00
36748;BME280;22716;51.556;5.080;2023-01-25T01:46:50;102971.38;;;1.30;100.00
36748;BME280;22716;51.556;5.080;2023-01-25T01:49:22;102981.63;;;1.28;100.00
36748;BME280;22716;51.556;5.080;2023-01-25T01:51:54;102973.72;;;1.25;100.00
36748;BME280;22716;51.556;5.080;2023-01-25T01:54:29;102959.78;;;1.08;100.00
36748;BME280;22716;51.556;5.080;2023-01-25T01:57:02;102963.22;;;1.09;100.00
36748;BME280;22716;51.556;5.080;2023-01-25T01:59:38;102971.97;;;1.11;100.00
36748;BME280;22716;51.556;5.080;2023-01-25T02:02:09;102978.63;;;1.07;100.00
36748;BME280;22716;51.556;5.080;2023-01-25T02:04:39;102973.16;;;1.03;100.00
36748;BME280;22716;51.556;5.080;2023-01-25T02:07:15;102975.75;;;1.03;100.00
36748;BME280;22716;51.556;5.080;2023-01-25T02:09:46;102958.84;;;0.93;100.00
36748;BME280;22716;51.556;5.080;2023-01-25T02:12:15;102961.88;;;1.01;100.00
36748;BME280;22716;51.556;5.080;2023-01-25T02:14:51;102967.03;;;1.01;100.00
36748;BME280;22716;51.556;5.080;2023-01-25T02:17:23;102961.50;;;0.95;100.00
36748;BME280;22716;51.556;5.080;2023-01-25T02:19:57;102959.81;;;0.95;100.00
36748;BME280;22716;51.556;5.080;2023-01-25T02:22:29;102960.78;;;0.97;100.00
36748;BME280;22716;51.556;5.080;2023-01-25T02:25:07;102956.91;;;1.04;100.00
36748;BME280;22716;51.556;5.080;2023-01-25T02:27:39;102955.28;;;1.06;100.00
36748;BME280;22716;51.556;5.080;2023-01-25T02:30:10;102952.63;;;1.04;100.00
36748;BME280;22716;51.556;5.080;2023-01-25T02:32:39;102954.91;;;1.00;100.00
36748;BME280;22716;51.556;5.080;2023-01-25T02:35:17;102953.16;;;0.99;100.00
36748;BME280;22716;51.556;5.080;2023-01-25T02:37:46;102922.13;;;0.84;100.00
36748;BME280;22716;51.556;5.080;2023-01-25T02:40:18;102947.69;;;0.94;100.00
36748;BME280;22716;51.556;5.080;2023-01-25T02:42:47;102940.75;;;0.93;100.00
36748;BME280;22716;51.556;5.080;2023-01-25T02:45:16;102937.28;;;0.93;100.00
36748;BME280;22716;51.556;5.080;2023-01-25T02:47:47;102948.59;;;0.95;100.00
36748;BME280;22716;51.556;5.080;2023-01-25T02:50:16;102944.44;;;0.97;100.00
36748;BME280;22716;51.556;5.080;2023-01-25T02:52:45;102940.25;;;0.99;100.00
36748;BME280;22716;51.556;5.080;2023-01-25T02:55:14;102939.34;;;0.98;100.00
36748;BME280;22716;51.556;5.080;2023-01-25T02:57:45;102942.91;;;1.00;100.00
36748;BME280;22716;51.556;5.080;2023-01-25T03:00:15;102896.66;;;0.76;100.00
36748;BME280;22716;51.556;5.080;2023-01-25T03:02:44;102937.47;;;0.96;100.00
36748;BME280;22716;51.556;5.080;2023-01-25T03:05:13;102943.41;;;0.95;100.00
36748;BME280;22716;51.556;5.080;2023-01-25T03:07:42;102935.31;;;0.89;100.00
36748;BME280;22716;51.556;5.080;2023-01-25T03:10:10;102938.69;;;0.88;100.00
36748;BME280;22716;51.556;5.080;2023-01-25T03:12:39;102934.53;;;0.77;100.00
36748;BME280;22716;51.556;5.080;2023-01-25T03:15:11;102938.00;;;0.77;100.00
36748;BME280;22716;51.556;5.080;2023-01-25T03:17:39;102930.19;;;0.76;100.00
36748;BME280;22716;51.556;5.080;2023-01-25T03:20:10;102927.81;;;0.79;100.00
36748;BME280;22716;51.556;5.080;2023-01-25T03:22:39;102920.53;;;0.86;100.00
36748;BME280;22716;51.556;5.080;2023-01-25T03:25:08;102913.31;;;0.81;100.00
36748;BME280;22716;51.556;5.080;2023-01-25T03:27:37;102914.28;;;0.83;100.00
36748;BME280;22716;51.556;5.080;2023-01-25T03:30:10;102903.94;;;0.83;100.00
36748;BME280;22716;51.556;5.080;2023-01-25T03:32:39;102906.66;;;0.84;100.00
36748;BME280;22716;51.556;5.080;2023-01-25T03:35:08;102905.63;;;0.82;100.00
36748;BME280;22716;51.556;5.080;2023-01-25T03:37:37;102898.78;;;0.83;100.00
36748;BME280;22716;51.556;5.080;2023-01-25T03:40:07;102891.38;;;0.74;100.00
36748;BME280;22716;51.556;5.080;2023-01-25T03:42:37;102891.50;;;0.76;100.00
36748;BME280;22716;51.556;5.080;2023-01-25T03:45:07;102883.56;;;0.73;100.00
36748;BME280;22716;51.556;5.080;2023-01-25T03:47:41;102886.34;;;0.76;100.00
36748;BME280;22716;51.556;5.080;2023-01-25T03:50:10;102889.81;;;0.76;100.00
36748;BME280;22716;51.556;5.080;2023-01-25T03:52:39;102882.56;;;0.71;100.00
36748;BME280;22716;51.556;5.080;2023-01-25T03:55:10;102881.78;;;0.72;100.00
36748;BME280;22716;51.556;5.080;2023-01-25T03:57:39;102891.50;;;0.76;100.00
36748;BME280;22716;51.556;5.080;2023-01-25T04:00:09;102883.81;;;0.77;100.00
36748;BME280;22716;51.556;5.080;2023-01-25T04:02:41;102893.03;;;0.87;100.00
36748;BME280;22716;51.556;5.080;2023-01-25T04:05:09;102895.81;;;0.90;100.00
36748;BME280;22716;51.556;5.080;2023-01-25T04:07:38;102892.44;;;0.91;100.00
36748;BME280;22716;51.556;5.080;2023-01-25T04:10:09;102890.44;;;0.87;100.00
36748;BME280;22716;51.556;5.080;2023-01-25T04:12:38;102885.19;;;0.85;100.00
36748;BME280;22716;51.556;5.080;2023-01-25T04:15:09;102877.16;;;0.81;100.00
36748;BME280;22716;51.556;5.080;2023-01-25T04:17:37;102896.00;;;0.93;100.00
36748;BME280;22716;51.556;5.080;2023-01-25T04:20:10;102890.72;;;0.91;100.00
36748;BME280;22716;51.556;5.080;2023-01-25T04:22:39;102882.78;;;0.88;100.00
36748;BME280;22716;51.556;5.080;2023-01-25T04:25:09;102876.84;;;0.89;100.00
36748;BME280;22716;51.556;5.080;2023-01-25T04:27:37;102880.50;;;0.93;100.00
36748;BME280;22716;51.556;5.080;2023-01-25T04:30:08;102873.84;;;0.96;100.00
36748;BME280;22716;51.556;5.080;2023-01-25T04:32:37;102864.53;;;0.85;100.00
36748;BME280;22716;51.556;5.080;2023-01-25T04:35:09;102872.09;;;0.82;100.00
36748;BME280;22716;51.556;5.080;2023-01-25T04:37:38;102870.31;;;0.81;100.00
36748;BME280;22716;51.556;5.080;2023-01-25T04:40:08;102868.66;;;0.82;100.00
36748;BME280;22716;51.556;5.080;2023-01-25T04:42:37;102871.59;;;0.88;100.00
36748;BME280;22716;51.556;5.080;2023-01-25T04:45:07;102872.00;;;0.81;100.00
36748;BME280;22716;51.556;5.080;2023-01-25T04:47:36;102861.19;;;0.59;100.00
36748;BME280;22716;51.556;5.080;2023-01-25T04:50:05;102872.94;;;0.68;100.00
36748;BME280;22716;51.556;5.080;2023-01-25T04:52:36;102874.63;;;0.68;100.00
36748;BME280;22716;51.556;5.080;2023-01-25T04:55:06;102862.88;;;0.58;100.00
36748;BME280;22716;51.556;5.080;2023-01-25T04:57:35;102874.63;;;0.68;100.00
36748;BME280;22716;51.556;5.080;2023-01-25T05:00:05;102872.22;;;0.71;100.00
36748;BME280;22716;51.556;5.080;2023-01-25T05:02:34;102862.22;;;0.75;100.00
36748;BME280;22716;51.556;5.080;2023-01-25T05:05:05;102869.94;;;0.75;100.00
36748;BME280;22716;51.556;5.080;2023-01-25T05:07:37;102867.91;;;0.70;100.00
36748;BME280;22716;51.556;5.080;2023-01-25T05:10:08;102857.97;;;0.63;100.00
36748;BME280;22716;51.556;5.080;2023-01-25T05:12:37;102862.91;;;0.73;100.00
36748;BME280;22716;51.556;5.080;2023-01-25T05:15:07;102851.78;;;0.74;100.00
36748;BME280;22716;51.556;5.080;2023-01-25T05:17:37;102835.91;;;0.68;100.00
36748;BME280;22716;51.556;5.080;2023-01-25T05:20:07;102848.41;;;0.75;100.00
36748;BME280;22716;51.556;5.080;2023-01-25T05:22:39;102843.06;;;0.72;100.00
36748;BME280;22716;51.556;5.080;2023-01-25T05:25:08;102849.13;;;0.72;100.00
36748;BME280;22716;51.556;5.080;2023-01-25T05:27:57;102847.25;;;0.70;100.00
36748;BME280;22716;51.556;5.080;2023-01-25T05:30:23;102840.59;;;0.73;100.00
36748;BME280;22716;51.556;5.080;2023-01-25T05:32:52;102842.09;;;0.70;100.00
36748;BME280;22716;51.556;5.080;2023-01-25T05:35:20;102843.31;;;0.62;100.00
36748;BME280;22716;51.556;5.080;2023-01-25T05:37:55;102839.84;;;0.61;100.00
36748;BME280;22716;51.556;5.080;2023-01-25T05:40:23;102843.31;;;0.62;100.00
36748;BME280;22716;51.556;5.080;2023-01-25T05:42:53;102849.66;;;0.67;100.00
36748;BME280;22716;51.556;5.080;2023-01-25T05:45:22;102840.22;;;0.67;100.00
36748;BME280;22716;51.556;5.080;2023-01-25T05:47:52;102838.50;;;0.68;100.00
36748;BME280;22716;51.556;5.080;2023-01-25T05:50:22;102829.41;;;0.60;100.00
36748;BME280;22716;51.556;5.080;2023-01-25T05:52:54;102825.16;;;0.60;100.00
36748;BME280;22716;51.556;5.080;2023-01-25T05:55:23;102825.44;;;0.65;100.00
36748;BME280;22716;51.556;5.080;2023-01-25T05:57:54;102823.84;;;0.67;100.00
36748;BME280;22716;51.556;5.080;2023-01-25T06:00:23;102790.09;;;0.49;100.00
36748;BME280;22716;51.556;5.080;2023-01-25T06:02:52;102813.88;;;0.58;100.00
36748;BME280;22716;51.556;5.080;2023-01-25T06:05:21;102825.25;;;0.62;100.00
36748;BME280;22716;51.556;5.080;2023-01-25T06:07:50;102834.69;;;0.61;100.00
36748;BME280;22716;51.556;5.080;2023-01-25T06:10:21;102832.09;;;0.61;100.00
36748;BME280;22716;51.556;5.080;2023-01-25T06:12:50;102837.16;;;0.60;100.00
36748;BME280;22716;51.556;5.080;2023-01-25T06:15:18;102837.16;;;0.60;100.00
36748;BME280;22716;51.556;5.080;2023-01-25T06:17:47;102827.66;;;0.59;100.00
36748;BME280;22716;51.556;5.080;2023-01-25T06:20:16;102831.91;;;0.58;100.00
36748;BME280;22716;51.556;5.080;2023-01-25T06:22:48;102837.88;;;0.57;100.00
36748;BME280;22716;51.556;5.080;2023-01-25T06:25:17;102837.47;;;0.51;100.00
36748;BME280;22716;51.556;5.080;2023-01-25T06:27:48;102839.88;;;0.48;100.00
36748;BME280;22716;51.556;5.080;2023-01-25T06:30:17;102838.91;;;0.46;100.00
36748;BME280;22716;51.556;5.080;2023-01-25T06:32:46;102835.03;;;0.39;100.00
36748;BME280;22716;51.556;5.080;2023-01-25T06:35:15;102833.56;;;0.43;100.00
36748;BME280;22716;51.556;5.080;2023-01-25T06:37:44;102817.84;;;0.25;100.00
36748;BME280;22716;51.556;5.080;2023-01-25T06:40:14;102805.97;;;0.14;100.00
36748;BME280;22716;51.556;5.080;2023-01-25T06:42:43;102812.69;;;0.25;100.00
36748;BME280;22716;51.556;5.080;2023-01-25T06:45:15;102831.75;;;0.42;100.00
36748;BME280;22716;51.556;5.080;2023-01-25T06:47:44;102830.84;;;0.41;100.00
36748;BME280;22716;51.556;5.080;2023-01-25T06:50:14;102841.47;;;0.46;100.00
36748;BME280;22716;51.556;5.080;2023-01-25T06:52:50;102828.38;;;0.43;100.00
36748;BME280;22716;51.556;5.080;2023-01-25T06:55:19;102827.09;;;0.49;100.00
36748;BME280;22716;51.556;5.080;2023-01-25T06:57:48;102833.94;;;0.49;100.00
36748;BME280;22716;51.556;5.080;2023-01-25T07:00:20;102819.06;;;0.45;100.00
36748;BME280;22716;51.556;5.080;2023-01-25T07:02:49;102830.53;;;0.50;100.00
36748;BME280;22716;51.556;5.080;2023-01-25T07:05:18;102817.56;;;0.48;100.00
36748;BME280;22716;51.556;5.080;2023-01-25T07:07:48;102826.28;;;0.50;100.00
36748;BME280;22716;51.556;5.080;2023-01-25T07:10:17;102828.78;;;0.49;100.00
36748;BME280;22716;51.556;5.080;2023-01-25T07:12:46;102826.09;;;0.47;100.00
36748;BME280;22716;51.556;5.080;2023-01-25T07:15:14;102832.25;;;0.49;100.00
36748;BME280;22716;51.556;5.080;2023-01-25T07:17:46;102832.84;;;0.45;100.00
36748;BME280;22716;51.556;5.080;2023-01-25T07:20:15;102826.28;;;0.50;100.00
36748;BME280;22716;51.556;5.080;2023-01-25T07:22:44;102815.88;;;0.49;100.00
36748;BME280;22716;51.556;5.080;2023-01-25T07:25:13;102820.00;;;0.60;100.00
36748;BME280;22716;51.556;5.080;2023-01-25T07:27:42;102824.19;;;0.58;100.00
36748;BME280;22716;51.556;5.080;2023-01-25T07:30:12;102821.22;;;0.52;100.00
36748;BME280;22716;51.556;5.080;2023-01-25T07:32:41;102816.78;;;0.49;100.00
36748;BME280;22716;51.556;5.080;2023-01-25T07:35:12;102813.09;;;0.46;100.00
36748;BME280;22716;51.556;5.080;2023-01-25T07:37:41;102815.38;;;0.41;100.00
36748;BME280;22716;51.556;5.080;2023-01-25T07:40:10;102808.88;;;0.33;100.00
36748;BME280;22716;51.556;5.080;2023-01-25T07:42:40;102815.19;;;0.38;100.00
36748;BME280;22716;51.556;5.080;2023-01-25T07:45:10;102810.38;;;0.30;100.00
36748;BME280;22716;51.556;5.080;2023-01-25T07:47:39;102812.88;;;0.28;100.00
36748;BME280;22716;51.556;5.080;2023-01-25T07:50:12;102817.44;;;0.32;100.00
36748;BME280;22716;51.556;5.080;2023-01-25T07:52:41;102802.03;;;0.34;100.00
36748;BME280;22716;51.556;5.080;2023-01-25T07:55:09;102812.16;;;0.31;100.00
36748;BME280;22716;51.556;5.080;2023-01-25T07:57:38;102805.03;;;0.27;100.00
36748;BME280;22716;51.556;5.080;2023-01-25T08:00:09;102809.97;;;0.24;100.00
36748;BME280;22716;51.556;5.080;2023-01-25T08:02:39;102807.53;;;0.12;100.00
36748;BME280;22716;51.556;5.080;2023-01-25T08:05:08;102792.91;;;-0.02;100.00
36748;BME280;22716;51.556;5.080;2023-01-25T08:07:40;102791.69;;;0.06;100.00
36748;BME280;22716;51.556;5.080;2023-01-25T08:10:10;102794.84;;;0.15;100.00
36748;BME280;22716;51.556;5.080;2023-01-25T08:12:38;102775.25;;;0.04;100.00
36748;BME280;22716;51.556;5.080;2023-01-25T08:15:08;102794.66;;;0.12;100.00
36748;BME280;22716;51.556;5.080;2023-01-25T08:17:37;102793.28;;;0.17;100.00
36748;BME280;22716;51.556;5.080;2023-01-25T08:20:07;102804.38;;;0.16;100.00
36748;BME280;22716;51.556;5.080;2023-01-25T08:22:39;102793.78;;;0.12;100.00
36748;BME280;22716;51.556;5.080;2023-01-25T08:25:09;102785.84;;;0.09;100.00
36748;BME280;22716;51.556;5.080;2023-01-25T08:27:38;102790.69;;;0.17;100.00
36748;BME280;22716;51.556;5.080;2023-01-25T08:30:09;102797.59;;;0.18;100.00
36748;BME280;22716;51.556;5.080;2023-01-25T08:32:38;102768.13;;;0.00;100.00
36748;BME280;22716;51.556;5.080;2023-01-25T08:35:08;102787.91;;;0.14;100.00
36748;BME280;22716;51.556;5.080;2023-01-25T08:37:36;102784.25;;;0.11;100.00
36748;BME280;22716;51.556;5.080;2023-01-25T08:40:10;102796.13;;;0.22;100.00
36748;BME280;22716;51.556;5.080;2023-01-25T08:42:39;102781.25;;;0.18;100.00
36748;BME280;22716;51.556;5.080;2023-01-25T08:45:09;102789.97;;;0.20;100.00
36748;BME280;22716;51.556;5.080;2023-01-25T08:47:38;102782.78;;;0.14;100.00
36748;BME280;22716;51.556;5.080;2023-01-25T08:50:09;102787.09;;;0.15;100.00
36748;BME280;22716;51.556;5.080;2023-01-25T08:52:38;102784.44;;;0.14;100.00
36748;BME280;22716;51.556;5.080;2023-01-25T08:55:09;102789.78;;;0.17;100.00
36748;BME280;22716;51.556;5.080;2023-01-25T08:57:38;102787.47;;;0.21;100.00
36748;BME280;22716;51.556;5.080;2023-01-25T09:00:08;102788.38;;;0.22;100.00
36748;BME280;22716;51.556;5.080;2023-01-25T09:02:37;102781.44;;;0.21;100.00
36748;BME280;22716;51.556;5.080;2023-01-25T09:05:07;102776.91;;;0.17;100.00
36748;BME280;22716;51.556;5.080;2023-01-25T09:07:36;102765.06;;;-0.08;100.00
36748;BME280;22716;51.556;5.080;2023-01-25T09:10:06;102775.25;;;0.04;100.00
36748;BME280;22716;51.556;5.080;2023-01-25T09:12:37;102778.31;;;0.12;100.00
36748;BME280;22716;51.556;5.080;2023-01-25T09:15:07;102767.91;;;0.10;100.00
36748;BME280;22716;51.556;5.080;2023-01-25T09:17:36;102777.31;;;0.10;100.00
36748;BME280;22716;51.556;5.080;2023-01-25T09:20:07;102772.97;;;0.09;100.00
36748;BME280;22716;51.556;5.080;2023-01-25T09:22:36;102748.91;;;-0.05;100.00
36748;BME280;22716;51.556;5.080;2023-01-25T09:25:06;102767.50;;;0.04;100.00
36748;BME280;22716;51.556;5.080;2023-01-25T09:27:39;102772.34;;;0.13;100.00
36748;BME280;22716;51.556;5.080;2023-01-25T09:30:09;102773.44;;;0.16;100.00
36748;BME280;22716;51.556;5.080;2023-01-25T09:32:38;102773.44;;;0.16;100.00
36748;BME280;22716;51.556;5.080;2023-01-25T09:35:07;102763.31;;;0.19;100.00
36748;BME280;22716;51.556;5.080;2023-01-25T09:37:36;102743.81;;;0.10;100.00
36748;BME280;22716;51.556;5.080;2023-01-25T09:40:11;102762.53;;;0.20;100.00
36748;BME280;22716;51.556;5.080;2023-01-25T09:42:56;102766.06;;;0.22;100.00
36748;BME280;22716;51.556;5.080;2023-01-25T09:45:30;102761.53;;;0.18;100.00
36748;BME280;22716;51.556;5.080;2023-01-25T09:48:09;102755.31;;;0.15;100.00
36748;BME280;22716;51.556;5.080;2023-01-25T09:50:57;102768.47;;;0.19;100.00
36748;BME280;22716;51.556;5.080;2023-01-25T09:53:32;102754.41;;;0.14;100.00
36748;BME280;22716;51.556;5.080;2023-01-25T09:56:03;102748.25;;;0.12;100.00
36748;BME280;22716;51.556;5.080;2023-01-25T09:58:43;102749.53;;;0.19;100.00
36748;BME280;22716;51.556;5.080;2023-01-25T10:01:19;102744.38;;;0.19;100.00
36748;BME280;22716;51.556;5.080;2023-01-25T10:03:53;102748.22;;;0.25;100.00
36748;BME280;22716;51.556;5.080;2023-01-25T10:06:30;102748.47;;;0.30;100.00
36748;BME280;22716;51.556;5.080;2023-01-25T10:09:11;102741.84;;;0.33;100.00
36748;BME280;22716;51.556;5.080;2023-01-25T10:11:43;102749.56;;;0.33;100.00
36748;BME280;22716;51.556;5.080;2023-01-25T10:14:16;102751.97;;;0.30;100.00
36748;BME280;22716;51.556;5.080;2023-01-25T10:17:05;102745.03;;;0.29;100.00
36748;BME280;22716;51.556;5.080;2023-01-25T10:19:51;102750.53;;;0.35;100.00
36748;BME280;22716;51.556;5.080;2023-01-25T10:22:27;102742.81;;;0.35;100.00
36748;BME280;22716;51.556;5.080;2023-01-25T10:25:06;102745.38;;;0.35;100.00
36748;BME280;22716;51.556;5.080;2023-01-25T10:27:44;102750.19;;;0.29;100.00
36748;BME280;22716;51.556;5.080;2023-01-25T10:30:25;102731.66;;;0.22;100.00
36748;BME280;22716;51.556;5.080;2023-01-25T10:32:57;102729.81;;;0.19;100.00
36748;BME280;22716;51.556;5.080;2023-01-25T10:35:29;102718.78;;;0.22;100.00
36748;BME280;22716;51.556;5.080;2023-01-25T10:38:04;102718.59;;;0.19;100.00
36748;BME280;22716;51.556;5.080;2023-01-25T10:46:02;102694.41;;;0.17;100.00
36748;BME280;22716;51.556;5.080;2023-01-25T10:48:34;102700.13;;;0.26;100.00
36748;BME280;22716;51.556;5.080;2023-01-25T10:51:04;102694.16;;;0.27;100.00
36748;BME280;22716;51.556;5.080;2023-01-25T10:53:35;102689.63;;;0.23;100.00
36748;BME280;22716;51.556;5.080;2023-01-25T10:56:20;102678.25;;;0.19;100.00
36748;BME280;22716;51.556;5.080;2023-01-25T10:58:51;102675.50;;;0.31;100.00
36748;BME280;22716;51.556;5.080;2023-01-25T11:01:30;102660.91;;;0.17;100.00
36748;BME280;22716;51.556;5.080;2023-01-25T11:04:00;102666.78;;;0.14;100.00
36748;BME280;22716;51.556;5.080;2023-01-25T11:06:32;102662.41;;;0.13;100.00
36748;BME280;22716;51.556;5.080;2023-01-25T11:12:19;102658.16;;;0.28;100.00
36748;BME280;22716;51.556;5.080;2023-01-25T11:14:49;102643.78;;;0.32;100.00
36748;BME280;22716;51.556;5.080;2023-01-25T11:17:25;102629.09;;;0.16;100.00
36748;BME280;22716;51.556;5.080;2023-01-25T11:20:20;102637.25;;;0.24;100.00
36748;BME280;22716;51.556;5.080;2023-01-25T11:22:51;102617.44;;;0.23;100.00
36748;BME280;22716;51.556;5.080;2023-01-25T11:25:30;102623.88;;;0.29;100.00
36748;BME280;22716;51.556;5.080;2023-01-25T11:28:23;102609.78;;;0.24;100.00
36748;BME280;22716;51.556;5.080;2023-01-25T11:30:52;102609.00;;;0.25;100.00
36748;BME280;22716;51.556;5.080;2023-01-25T11:33:25;102596.13;;;0.25;100.00
36748;BME280;22716;51.556;5.080;2023-01-25T11:36:08;102594.88;;;0.33;100.00
36748;BME280;22716;51.556;5.080;2023-01-25T11:38:43;102587.25;;;0.35;100.00
36748;BME280;22716;51.556;5.080;2023-01-25T11:41:19;102585.97;;;0.43;100.00
36748;BME280;22716;51.556;5.080;2023-01-25T11:44:03;102577.53;;;0.45;100.00
36748;BME280;22716;51.556;5.080;2023-01-25T11:46:44;102568.72;;;0.42;100.00
36748;BME280;22716;51.556;5.080;2023-01-25T11:49:37;102574.00;;;0.43;100.00
36748;BME280;22716;51.556;5.080;2023-01-25T11:52:21;102575.31;;;0.37;100.00
36748;BME280;22716;51.556;5.080;2023-01-25T11:54:58;102577.00;;;0.36;100.00
36748;BME280;22716;51.556;5.080;2023-01-25T11:57:46;102554.94;;;0.27;100.00
36748;BME280;22716;51.556;5.080;2023-01-25T12:00:33;102558.78;;;0.33;100.00
36748;BME280;22716;51.556;5.080;2023-01-25T12:03:27;102544.81;;;0.30;100.00
36748;BME280;22716;51.556;5.080;2023-01-25T12:06:12;102544.56;;;0.25;100.00
36748;BME280;22716;51.556;5.080;2023-01-25T12:09:02;102528.28;;;0.26;100.00
36748;BME280;22716;51.556;5.080;2023-01-25T12:11:49;102530.16;;;0.29;100.00
36748;BME280;22716;51.556;5.080;2023-01-25T12:14:32;102514.50;;;0.26;100.00
36748;BME280;22716;51.556;5.080;2023-01-25T12:17:22;102513.69;;;0.27;100.00
36748;BME280;22716;51.556;5.080;2023-01-25T12:23:10;102496.00;;;0.33;100.00
36748;BME280;22716;51.556;5.080;2023-01-25T12:25:52;102485.69;;;0.33;100.00
36748;BME280;22716;51.556;5.080;2023-01-25T12:28:26;102471.03;;;0.32;100.00
36748;BME280;22716;51.556;5.080;2023-01-25T12:31:00;102467.63;;;0.33;100.00
36748;BME280;22716;51.556;5.080;2023-01-25T12:33:35;102463.91;;;0.28;100.00
36748;BME280;22716;51.556;5.080;2023-01-25T12:36:11;102463.13;;;0.29;100.00
36748;BME280;22716;51.556;5.080;2023-01-25T12:38:43;102453.88;;;0.32;100.00
36748;BME280;22716;51.556;5.080;2023-01-25T12:41:25;102454.03;;;0.35;100.00
36748;BME280;22716;51.556;5.080;2023-01-25T12:44:06;102435.00;;;0.33;100.00
36748;BME280;22716;51.556;5.080;2023-01-25T12:46:40;102435.28;;;0.38;100.00
36748;BME280;22716;51.556;5.080;2023-01-25T12:49:18;102420.81;;;0.25;100.00
36748;BME280;22716;51.556;5.080;2023-01-25T12:51:48;102430.75;;;0.34;100.00
36748;BME280;22716;51.556;5.080;2023-01-25T12:54:26;102424.97;;;0.38;100.00
36748;BME280;22716;51.556;5.080;2023-01-25T12:57:07;102416.94;;;0.48;100.00
36748;BME280;22716;51.556;5.080;2023-01-25T12:59:45;102413.56;;;0.49;100.00
36748;BME280;22716;51.556;5.080;2023-01-25T13:02:41;102418.53;;;0.46;100.00
36748;BME280;22716;51.556;5.080;2023-01-25T13:05:24;102412.31;;;0.42;100.00
36748;BME280;22716;51.556;5.080;2023-01-25T13:08:03;102409.03;;;0.45;100.00
36748;BME280;22716;51.556;5.080;2023-01-25T13:10:39;102400.16;;;0.40;100.00
36748;BME280;22716;51.556;5.080;2023-01-25T13:13:22;102397.97;;;0.47;100.00
36748;BME280;22716;51.556;5.080;2023-01-25T13:15:52;102387.66;;;0.47;100.00
36748;BME280;22716;51.556;5.080;2023-01-25T13:18:38;102382.34;;;0.44;100.00
36748;BME280;22716;51.556;5.080;2023-01-25T13:21:10;102386.47;;;0.41;100.00
36748;BME280;22716;51.556;5.080;2023-01-25T13:24:14;102376.69;;;0.35;100.00
36748;BME280;22716;51.556;5.080;2023-01-25T13:27:02;102363.94;;;0.38;100.00
36748;BME280;22716;51.556;5.080;2023-01-25T13:29:58;102353.81;;;0.41;100.00